Tiempo atmosférico en la estación meteorológica de Cervera De Pisuerga, Palencia (1140 m.)

Fecha
DESCASC
Temp. máxima en grados centígrados (hora)
DESCASC
Temp. mínima en grados centígrados (hora)
DESCASC
Temp. media en grados centígrados
DESCASC
Racha de viento máxima en m/sg (hora)
DESCASC
Velocidad máxima media en intervalos de 10 minutos(hora)
DESCASC
Precipitaciones diarias en mm
DESCASC
Precipitaciones de 00:00 a 06:00 en mm
DESCASC
Precipitaciones de 06:00 a 12:00 en mm
DESCASC
Precipitaciones de 12:00 a 18:00 en mm
DESCASC
Precipitaciones de 18:00 a 24:00 en mm
DESCASC
21-08-2017 36.3 (17:40) 14.6 (03:30) 25.4 8.61 (17:00) 4.72 (19:30) 0 0 0 0 0
20-08-2017 31.2 (16:30) 7.3 (06:50) 19.3 7.22 (15:30) 3.89 (20:10) 0 0 0 0 0
19-08-2017 25.9 (18:00) 10.6 (07:40) 18.3 7.5 (16:40) 4.17 (16:40) 0 0 0 0 0
18-08-2017 25.2 (16:40) 11.5 (07:40) 18.4 10.56 (21:50) 5.56 (21:50) 0 0 0 0 0
17-08-2017 33.1 (16:40) 11.4 (00:00) 22.2 9.44 (14:50) 4.72 (23:10) 0 0 0 0 0
16-08-2017 30 (17:20) 9.5 (00:00) 19.8 7.78 (17:40) 4.17 (17:40) 0 0 0 0 0
15-08-2017 28.8 (15:20) 13.2 (00:00) 21 8.61 (14:30) 4.17 (18:40) 0 0 0 0 0
14-08-2017 32.5 (15:30) 13.5 (07:50) 23 10.83 (15:00) 6.11 (15:00) 0 0 0 0 0
13-08-2017 31.1 (16:50) 9.9 (00:00) 20.5 7.78 (15:00) 4.17 (23:00) 0 0 0 0 0
12-08-2017 28.7 (17:00) 6.4 (00:00) 17.6 7.78 (17:30) 3.89 (07:40) 0 0 0 0 0
11-08-2017 25.4 (16:40) 5.1 (00:00) 15.2 7.78 (15:00) 4.17 (04:00) 0 0 0 0 0
10-08-2017 20.3 (16:20) 5.1 (00:00) 12.7 10.83 (11:20) 4.72 (17:10) 0 0 0 0 0
09-08-2017 17.2 (14:30) 6.5 (00:00) 11.9 12.22 (18:40) 6.11 (18:10) 0 0 0 0 0
08-08-2017 20.2 (17:20) 7.4 (00:00) 13.8 8.33 (02:00) 4.72 (14:30) 0 0 0 0 0
07-08-2017 28.6 (15:00) 7.5 (00:00) 18.1 10 (22:50) 5 (15:40) 0 0 0 0 0
06-08-2017 22.9 (17:10) 9.7 (00:00) 16.3 9.72 (03:00) 4.72 (10:10) 0 0 0 0 0
05-08-2017 24.3 (16:00) 11.8 (00:00) 18 10.56 (22:40) 5 (19:10) 0 0 0 0 0
04-08-2017 33.6 (17:00) 13.2 (00:00) 23.4 9.72 (16:20) 4.44 (14:30) 0 0 0 0 0
03-08-2017 31.5 (17:40) 12.4 (00:00) 21.9 11.67 (16:10) 5 (17:40) 0 0 0 0 0
02-08-2017 30.8 (17:10) 10.3 (00:00) 20.5 10 (14:00) 5.56 (14:20) 0 0 0 0 0
01-08-2017 26.7 (17:30) 10 (00:00) 18.4 7.78 (15:40) 4.44 (15:40) 0 0 0 0 0
31-07-2017 23.6 (16:50) 8.7 (00:00) 16.2 7.22 (14:30) 4.17 (18:10) 0 0 0 0 0
30-07-2017 29.3 (16:00) 11.4 (00:00) 20.3 11.67 (13:20) 5 (13:20) 0 0 0 0 0
29-07-2017 31.2 (17:00) 13.1 (00:00) 22.2 11.67 (19:10) 5.56 (13:00) 0 0 0 0 0
28-07-2017 32.2 (17:50) 14.4 (00:00) 23.3 10.56 (18:00) 4.17 (12:30) 0 0 0 0 0
27-07-2017 32.2 (16:50) 11.1 (00:00) 21.7 8.89 (16:00) 4.17 (14:50) 0 0 0 0 0
26-07-2017 30 (17:20) 7.8 (00:00) 18.9 7.78 (18:20) 4.17 (06:00) 0 0 0 0 0
25-07-2017 24.3 (17:30) 7.3 (00:00) 15.8 9.17 (02:10) 3.89 (02:20) 0 0 0 0 0
24-07-2017 26 (15:20) 10 (00:00) 18 9.44 (17:30) 5 (18:50) 0 0 0 0 0
23-07-2017 26.8 (15:20) 8.6 (00:00) 17.7 8.33 (15:40) 4.72 (23:20) 0 0 0 0 0

Gráficas

Temp. máximas Temp. mínimas Temp. medias Precipitaciones Rachas de viento máximas Velocidades máximas media en intervalos de 10 minutos

Datos horarios

Fecha y hora oficial Temperatura (ºC) Velocidad del viento (km/h) Dirección del viento Racha (km/h) Dirección de racha Precipitación (mm) Presión (hPa) Tendencia (hPa) Humedad (%)
2017-08-21 23:00:00 22.4 7 Sudeste 18 Este 0 890.4 0.9 27
2017-08-21 22:00:00 25.3 4 Oeste 13 Sudoeste 0 889.7 0.2 17
2017-08-21 21:00:00 28.8 6 Sudoeste 21 Sudoeste 0 889.6 0 13
2017-08-21 20:00:00 33.4 13 Sudoeste 28 Sudoeste 0 889.5 -0.4 9
2017-08-21 19:00:00 34.9 15 Sudoeste 24 Sudoeste 0 889.5 -1 8
2017-08-21 18:00:00 36 12 Sudoeste 25 Sudoeste 0 889.6 -1.6 8
2017-08-21 17:00:00 36 11 Sur 31 Sur 0 889.9 -1.8 9
2017-08-21 16:00:00 35.8 9 Sur 27 Sur 0 890.5 -1.5 9
2017-08-21 15:00:00 35.1 12 Sudoeste 25 Sudoeste 0 891.2 -1.3 10
2017-08-21 14:00:00 33.3 15 Sur 30 Sur 0 891.7 -1 13
2017-08-21 13:00:00 31.5 12 Sudeste 22 Este 0 892 -1.1 15
2017-08-21 12:00:00 28.3 4 Oeste 14 Sudeste 0 892.5 -0.5 18
2017-08-21 11:00:00 24.6 6 Este 13 Sudeste 0 892.7 -0.3 26
2017-08-21 10:00:00 20.8 3 Sudeste 15 Oeste 0 893.1 0.1 35
2017-08-21 09:00:00 17.4 7 Noroeste 22 Noroeste 0 893 -0.3 42
2017-08-21 08:00:00 15.8 11 Noroeste 20 Oeste 0 893 -0.8 45
2017-08-21 07:00:00 16 11 Noroeste 22 Noroeste 0 893 -1.4 46
2017-08-21 06:00:00 15.6 9 Noroeste 22 Oeste 0 893.3 -1.5 48
2017-08-21 05:00:00 15.4 12 Noroeste 22 Noroeste 0 893.8 -1.2 49
2017-08-21 04:00:00 15 10 Noroeste 22 Noroeste 0 894.4 -0.7 53
2017-08-21 03:00:00 14.9 9 Noroeste 20 Noroeste 0 894.8 -0.5 56
2017-08-21 02:00:00 15.3 9 Noroeste 20 Oeste 0 895 -0.3 57
2017-08-21 01:00:00 16.1 11 Noroeste 20 Oeste 0 895.1 0.1 56
2017-08-21 00:00:00 16 9 Oeste 17 Oeste 0 895.3 0.7 56
2017-08-20 23:00:00 17 8 Este 17 Sur 0 895.3 0.8 49
2017-08-20 22:00:00 18.8 12 Sur 19 Sur 0 895 0.4 45
2017-08-20 21:00:00 21.6 10 Este 21 Sudeste 0 894.6 -0.2 38
2017-08-20 20:00:00 25.2 13 Sudeste 26 Sudeste 0 894.5 -0.5 31
2017-08-20 19:00:00 28.1 8 Este 25 Sudeste 0 894.6 -0.6 26
2017-08-20 18:00:00 29 12 Este 22 Este 0 894.8 -0.5 23
2017-08-20 17:00:00 30 8 Nordeste 21 Nordeste 0 895 -0.4 20
2017-08-20 16:00:00 30.7 9 Nordeste 26 Nordeste 0 895.2 -0.6 19
2017-08-20 15:00:00 28.7 6 Nordeste 23 Este 0 895.3 -0.7 22
2017-08-20 14:00:00 27.1 9 Sudeste 19 Este 0 895.4 -0.6 24
2017-08-20 13:00:00 24 6 Este 18 Sudeste 0 895.8 0 31
2017-08-20 12:00:00 20.3 6 Este 15 Este 0 896 0.5 40
2017-08-20 11:00:00 15.9 6 Sudeste 17 Sur 0 896 0.6 56
2017-08-20 10:00:00 12.3 8 Sudeste 19 Sur 0 895.8 0.8 74
2017-08-20 09:00:00 9 7 Sudoeste 16 Oeste 0 895.5 0.7 91
2017-08-20 08:00:00 7.6 7 Sudeste -- -- 0 895.4 0.3 90
2017-08-20 07:00:00 7.4 10 Sur 19 Oeste 0 895 -0.2 84
2017-08-20 06:00:00 8.2 6 Oeste 25 Oeste 0 894.8 -0.7 75
2017-08-20 05:00:00 9.3 6 Noroeste 11 Norte 0 895.1 -0.4 80
2017-08-20 04:00:00 9.5 4 Noroeste 19 Oeste 0 895.2 -0.5 89
2017-08-20 03:00:00 9.9 5 Noroeste 20 Oeste 0 895.5 -0.3 89
2017-08-20 02:00:00 10.8 6 Norte 14 Noroeste 0 895.5 0 86
2017-08-20 01:00:00 11.7 7 Norte 23 Noroeste 0 895.7 0.8 87
2017-08-20 00:00:00 12.1 9 Norte 18 Noroeste 0 895.8 1.6 87
2017-08-19 23:00:00 12.9 12 Noroeste 25 Norte 0 895.5 1.8 86
2017-08-19 22:00:00 13.8 12 Norte 26 Norte 0 894.9 1.3 80
2017-08-19 21:00:00 16 10 Noroeste 24 Norte 0 894.2 0.8 71
2017-08-19 20:00:00 20.2 10 Norte 23 Norte 0 893.7 0 56
2017-08-19 19:00:00 24.1 9 Nordeste 20 Este 0 893.6 -0.2 44
2017-08-19 18:00:00 25.4 9 Este 24 Sudeste 0 893.4 -0.7 39
2017-08-19 17:00:00 24.8 13 Este 27 Sudeste 0 893.7 -0.4 36
2017-08-19 16:00:00 25.5 8 Este 22 Sudeste 0 893.8 -0.3 34
2017-08-19 15:00:00 24.3 9 Nordeste 24 Norte 0 894.1 -0.3 39
2017-08-19 14:00:00 22.7 8 Norte 18 Norte 0 894.1 -0.3 42
2017-08-19 13:00:00 21 6 Este 22 Sudeste 0 894.1 -0.2 48
2017-08-19 12:00:00 18.3 5 Este 21 Este 0 894.4 0.1 59
2017-08-19 11:00:00 16.6 10 Sudeste 21 Sudeste 0 894.4 0.5 69
2017-08-19 10:00:00 14.6 3 Este 11 Nordeste 0 894.3 0.9 92
2017-08-19 09:00:00 11.2 3 Norte 8 Nordeste 0 894.3 1.2 94
2017-08-19 08:00:00 10.6 0 Calma 6 Este 0 893.9 0.8 93
2017-08-19 07:00:00 10.9 5 Este 9 Este 0 893.4 0.1 92
2017-08-19 06:00:00 11.6 5 Este 9 Este 0 893.1 -0.3 91
2017-08-19 05:00:00 12.7 5 Noroeste 19 Noroeste 0 893.1 -0.7 88
2017-08-19 04:00:00 13.3 11 Noroeste 24 Noroeste 0 893.3 -0.5 88
2017-08-19 03:00:00 13.3 8 Noroeste 22 Noroeste 0 893.4 -0.6 86
2017-08-19 02:00:00 13.3 11 Noroeste 22 Noroeste 0 893.8 -0.2 90
2017-08-19 01:00:00 13.1 7 Norte 15 Noroeste 0 893.8 0.2 90
2017-08-19 00:00:00 13.8 9 Noroeste 27 Noroeste 0 894 1.1 87
2017-08-18 23:00:00 14 10 Noroeste 33 Noroeste 0 894 1.6 87
2017-08-18 22:00:00 14.7 17 Norte 38 Noroeste 0 893.6 1.3 85
2017-08-18 21:00:00 16 19 Norte 34 Noroeste 0 892.9 0.4 77
2017-08-18 20:00:00 21.7 7 Norte 16 Norte 0 892.4 -0.2 53
2017-08-18 19:00:00 24.1 6 Nordeste 21 Norte 0 892.3 -0.7 46
2017-08-18 18:00:00 24 10 Norte 24 Norte 0 892.5 -0.1 45
2017-08-18 17:00:00 23.7 12 Norte 27 Norte 0 892.6 -0.2 46
2017-08-18 16:00:00 21.1 9 Norte 26 Norte 0 893 0.5 56
2017-08-18 15:00:00 23.8 9 Nordeste 28 Sudeste 0 892.6 0.1 48
2017-08-18 14:00:00 21.4 10 Este 27 Sudeste 0 892.8 0.7 56
2017-08-18 13:00:00 23.6 9 Nordeste 20 Este 0 892.5 -0.1 47
2017-08-18 12:00:00 21.6 11 Norte 21 Norte 0 892.5 0.5 54
2017-08-18 11:00:00 19.5 7 Nordeste 14 Nordeste 0 892.1 0.5 64
2017-08-18 10:00:00 15.8 4 Oeste 8 Oeste 0 892.6 1.6 79
2017-08-18 09:00:00 13.2 3 Oeste 20 Oeste 0 892 1.2 89
2017-08-18 08:00:00 12.2 5 Noroeste 21 Oeste 0 891.6 0.3 90
2017-08-18 07:00:00 12.4 6 Noroeste 15 Noroeste 0 891 -0.6 90
2017-08-18 06:00:00 13.4 8 Noroeste 20 Oeste 0 890.8 -1 85
2017-08-18 05:00:00 12.8 8 Noroeste 19 Oeste 0 891.3 -0.9 88
2017-08-18 04:00:00 13.8 10 Noroeste 17 Noroeste 0 891.6 -0.7 84
2017-08-18 03:00:00 14 4 Noroeste 19 Noroeste 0 891.8 -0.7 80
2017-08-18 02:00:00 15.5 13 Noroeste 19 Oeste 0 892.2 -0.3 75
2017-08-18 01:00:00 16.8 12 Noroeste 21 Oeste 0 892.3 0 70
2017-08-18 00:00:00 17.5 13 Noroeste 20 Oeste 0 892.5 0.5 67
2017-08-17 23:00:00 18.1 14 Oeste 18 Oeste 0 892.5 0.7 66
2017-08-17 22:00:00 19.9 4 Noroeste 15 Oeste 0 892.3 0.7 59
2017-08-17 21:00:00 23.2 6 Este 13 Este 0 892 0.4 46
2017-08-17 20:00:00 27.6 4 Este 18 Norte 0 891.8 0.2 37
2017-08-17 19:00:00 28.3 7 Nordeste 23 Norte 0 891.6 -0.2 35
2017-08-17 18:00:00 27.6 12 Norte 30 Norte 0 891.6 -0.8 36
2017-08-17 17:00:00 31.4 9 Norte 30 Sur 0 891.6 -1.3 28
2017-08-17 16:00:00 32.8 14 Sudoeste 33 Sur 0 891.8 -1.4 19
2017-08-17 15:00:00 30.8 14 Sur 34 Sur 0 892.4 -1.2 23
2017-08-17 14:00:00 30.4 12 Sur 25 Sur 0 892.9 -1 24
2017-08-17 13:00:00 29.1 13 Sur 27 Sur 0 893.2 -0.9 27
2017-08-17 12:00:00 26.1 12 Sudeste 22 Sudeste 0 893.6 -0.5 33
2017-08-17 11:00:00 21.1 7 Este 14 Este 0 893.9 0.2 51
2017-08-17 10:00:00 16.4 7 Oeste 12 Noroeste 0 894.1 0.4 71
2017-08-17 09:00:00 13.9 3 Noroeste 23 Oeste 0 894.1 0.4 87
2017-08-17 08:00:00 11.9 8 Noroeste 18 Oeste 0 893.7 -0.1 90
2017-08-17 07:00:00 11.8 5 Noroeste 10 Oeste 0 893.7 -0.3 92
2017-08-17 06:00:00 11.5 3 Noroeste 9 Oeste 0 893.7 -0.3 92
2017-08-17 05:00:00 11.8 3 Noroeste 14 Oeste 0 893.8 -0.4 92
2017-08-17 04:00:00 12.2 3 Noroeste 14 Oeste 0 894 -0.6 91
2017-08-17 03:00:00 13.2 5 Noroeste 15 Oeste 0 894 -0.7 90
2017-08-17 02:00:00 13.6 6 Noroeste 14 Oeste 0 894.2 -0.4 91
2017-08-17 01:00:00 13.6 3 Oeste 12 Sur 0 894.6 0.3 89
2017-08-17 00:00:00 15.3 2 Sudeste 18 Oeste 0 894.7 0.7 81
2017-08-16 23:00:00 16.5 12 Noroeste 19 Noroeste 0 894.6 1.1 77
2017-08-16 22:00:00 17.8 7 Norte 16 Sur 0 894.3 0.9 70
2017-08-16 21:00:00 21.2 7 Este 15 Nordeste 0 894 1.1 56
2017-08-16 20:00:00 25.9 6 Nordeste 19 Nordeste 0 893.5 0.6 42
2017-08-16 19:00:00 26.8 6 Nordeste 27 Sudeste 0 893.4 0.4 38
2017-08-16 18:00:00 28.6 14 Este 28 Este 0 892.9 -0.3 27
2017-08-16 17:00:00 29.6 7 Nordeste 21 Este 0 892.9 -0.6 21
2017-08-16 16:00:00 28.8 11 Sudeste 27 Este 0 893 -0.9 23
2017-08-16 15:00:00 28.1 13 Este 26 Sudeste 0 893.2 -0.7 27
2017-08-16 14:00:00 26.6 10 Sur 25 Sudeste 0 893.5 -0.4 31
2017-08-16 13:00:00 24.7 8 Sudeste 24 Sudeste 0 893.9 0.1 39
2017-08-16 12:00:00 21.8 10 Sudeste 19 Sudeste 0 893.9 0.4 49
2017-08-16 11:00:00 18.6 8 Sudeste 15 Sur 0 893.9 0.4 59
2017-08-16 10:00:00 14.7 3 Sur 6 Sudeste 0 893.8 0.7 76
2017-08-16 09:00:00 11.3 5 Noroeste 21 Oeste 0 893.5 0.7 90
2017-08-16 08:00:00 9.7 4 Noroeste 21 Oeste 0 893.5 0.6 93
2017-08-16 07:00:00 9.9 6 Oeste 17 Oeste 0 893.1 0.3 93
2017-08-16 06:00:00 10.5 4 Noroeste 20 Oeste 0 892.8 0 93
2017-08-16 05:00:00 10.8 3 Noroeste 6 Oeste 0 892.9 -0.3 92
2017-08-16 04:00:00 11.5 4 Noroeste 7 Noroeste 0 892.8 -0.6 91
2017-08-16 03:00:00 12.1 2 Noroeste 8 Norte 0 892.8 -0.6 88
2017-08-16 02:00:00 12.5 7 Norte 15 Noroeste 0 893.2 0.1 89
2017-08-16 01:00:00 13 6 Norte 14 Noroeste 0 893.4 0.6 86
2017-08-16 00:00:00 13.2 6 Norte 14 Noroeste 0 893.4 1.2 85
2017-08-15 23:00:00 13.5 5 Noroeste 20 Norte 0 893.1 1.6 83
2017-08-15 22:00:00 14.1 10 Noroeste 25 Noroeste 0 892.8 1.4 81
2017-08-15 21:00:00 15.7 11 Noroeste 24 Norte 0 892.2 1.3 75
2017-08-15 20:00:00 18.9 11 Norte 28 Norte 0 891.5 0.9 63
2017-08-15 19:00:00 20.6 13 Norte 30 Norte 0 891.4 1 58
2017-08-15 18:00:00 21.7 14 Norte 29 Norte 0 890.9 0.4 54
2017-08-15 17:00:00 24.4 8 Nordeste 24 Norte 0 890.6 -0.3 45
2017-08-15 16:00:00 26.5 11 Nordeste 27 Sudeste 0 890.4 -0.5 38
2017-08-15 15:00:00 27.3 9 Sudeste 31 Sudeste 0 890.5 -0.4 30
2017-08-15 14:00:00 26.4 12 Sudeste 24 Sur 0 890.9 -0.1 36
2017-08-15 13:00:00 23.5 10 Este 22 Sudeste 0 890.9 0 47
2017-08-15 12:00:00 21.1 13 Sudeste 22 Sudeste 0 890.9 0.3 53
2017-08-15 11:00:00 18.4 12 Sudeste 18 Sur 0 891 1 62
2017-08-15 10:00:00 16.4 3 Nordeste 13 Noroeste 0 890.9 1.2 72
2017-08-15 09:00:00 14 4 Noroeste 16 Noroeste 0 890.6 1.2 79
2017-08-15 08:00:00 13.8 8 Noroeste 16 Noroeste 0 890 0.3 77
2017-08-15 07:00:00 14.4 6 Noroeste 16 Oeste 0 889.7 0.3 70
2017-08-15 06:00:00 14.9 6 Oeste 17 Oeste 0 889.4 -0.2 68
2017-08-15 05:00:00 15.4 3 Sur 17 Oeste 0 889.7 -0.3 67
2017-08-15 04:00:00 15.9 8 Oeste 18 Oeste 0 889.4 -0.6 65
2017-08-15 03:00:00 16.2 6 Oeste 19 Oeste 0 889.6 -0.3 67
2017-08-15 02:00:00 15.9 6 Oeste 17 Oeste 0 890 -0.1 70
2017-08-15 01:00:00 17.3 8 Sudoeste 21 Oeste 0 890 1.2 64
2017-08-15 00:00:00 18.1 15 Oeste 20 Oeste 0 889.9 2.1 61
2017-08-14 23:00:00 18.3 8 Sur 32 Este 0 890.1 2.5 60
2017-08-14 22:00:00 21.8 6 Nordeste 19 Nordeste 0 888.8 1 44
2017-08-14 21:00:00 24.5 6 Norte 17 Sudoeste 0 887.8 0.1 32
2017-08-14 20:00:00 27.5 5 Sudoeste 29 Sur 0 887.6 -0.3 20
2017-08-14 19:00:00 29.2 14 Sudoeste 30 Oeste 0 887.8 0 16
2017-08-14 18:00:00 30 10 Oeste 34 Sudoeste 0 887.7 -0.3 16
2017-08-14 17:00:00 30.2 14 Sudoeste 36 Sur 0 887.9 -0.5 15
2017-08-14 16:00:00 32 19 Sudoeste 39 Sudoeste 0 887.8 -0.8 13
2017-08-14 15:00:00 31.8 22 Sur 39 Sur 0 888 -0.9 14
2017-08-14 14:00:00 31.8 14 Sur 33 Sur 0 888.4 -0.7 15
2017-08-14 13:00:00 29 12 Sudeste 27 Sudeste 0 888.6 -0.5 22
2017-08-14 12:00:00 25.8 7 Este 15 Sudeste 0 888.9 -0.1 31
2017-08-14 11:00:00 22.2 7 Sudeste 13 Sudeste 0 889.1 0.2 42
2017-08-14 10:00:00 18.1 3 Sudoeste 16 Oeste 0 889.1 0.4 54
2017-08-14 09:00:00 15.7 8 Noroeste 14 Noroeste 0 889 0.1 57
2017-08-14 08:00:00 14.3 8 Noroeste 18 Oeste 0 888.9 -0.2 62
2017-08-14 07:00:00 14.4 9 Noroeste 21 Oeste 0 888.7 -0.6 62
2017-08-14 06:00:00 14.1 8 Noroeste 21 Oeste 0 888.9 -0.8 66
2017-08-14 05:00:00 15.2 10 Noroeste 21 Noroeste 0 889.1 -0.8 63
2017-08-14 04:00:00 15 9 Oeste 21 Oeste 0 889.3 -0.9 64
2017-08-14 03:00:00 15.5 9 Noroeste 20 Oeste 0 889.7 -0.6 63
2017-08-14 02:00:00 16.1 13 Noroeste 23 Noroeste 0 889.9 -0.4 59
2017-08-14 01:00:00 15.9 10 Noroeste 21 Noroeste 0 890.2 0.1 60
2017-08-14 00:00:00 16.2 12 Oeste 20 Oeste 0 890.3 0.6 55
2017-08-13 23:00:00 17.8 15 Oeste 20 Noroeste 0 890.3 0.8 47
2017-08-13 22:00:00 18.6 4 Norte 15 Sudoeste 0 890.1 0.7 47
2017-08-13 21:00:00 21.3 4 Noroeste 15 Norte 0 889.7 0.4 45
2017-08-13 20:00:00 23.8 8 Norte 19 Norte 0 889.5 -0.1 39
2017-08-13 19:00:00 25.1 5 Nordeste 23 Norte 0 889.4 -0.7 34
2017-08-13 18:00:00 30.4 7 Sudeste 22 Sur 0 889.3 -1.2 14
2017-08-13 17:00:00 29.3 8 Sudoeste 28 Sur 0 889.6 -1.5 15
2017-08-13 16:00:00 29.8 8 Oeste 26 Este 0 890.1 -1.6 15
2017-08-13 15:00:00 29.6 12 Sudeste 28 Sudeste 0 890.5 -1.7 16
2017-08-13 14:00:00 28.1 12 Sudeste 23 Sudeste 0 891.1 -1.3 18
2017-08-13 13:00:00 26 12 Sudeste 20 Este 0 891.7 -0.8 22
2017-08-13 12:00:00 22.9 9 Este 19 Sudeste 0 892.2 -0.1 26
2017-08-13 11:00:00 18.8 4 Nordeste 13 Oeste 0 892.4 0.3 38
2017-08-13 10:00:00 15.5 4 Oeste 14 Oeste 0 892.5 0.3 48
2017-08-13 09:00:00 12.8 3 Noroeste 8 Norte 0 892.3 -0.2 58
2017-08-13 08:00:00 11 5 Norte 23 Oeste 0 892.1 -0.8 59
2017-08-13 07:00:00 10.8 10 Noroeste 25 Oeste 0 892.2 -0.8 61
2017-08-13 06:00:00 10.3 6 Noroeste 14 Oeste 0 892.5 -0.8 64
2017-08-13 05:00:00 10.4 2 Oeste 17 Oeste 0 892.9 -0.7 66
2017-08-13 04:00:00 9.9 4 Oeste 17 Oeste 0 893 -0.8 70
2017-08-13 03:00:00 10.8 3 Oeste 12 Sudoeste 0 893.3 -0.7 65
2017-08-13 02:00:00 11.9 3 Sudoeste 13 Oeste 0 893.6 -0.4 59
2017-08-13 01:00:00 13.8 9 Noroeste 17 Oeste 0 893.8 0.1 50
2017-08-13 00:00:00 14.1 4 Oeste 17 Oeste 0 894 0.5 49
2017-08-12 23:00:00 15.1 13 Oeste 17 Oeste 0 894 0.7 49
2017-08-12 22:00:00 16.7 12 Noroeste 18 Oeste 0 893.7 0.5 43
2017-08-12 21:00:00 19.3 7 Norte 22 Norte 0 893.5 0.4 33
2017-08-12 20:00:00 23.2 11 Norte 23 Norte 0 893.3 0.1 26
2017-08-12 19:00:00 24.9 13 Norte 26 Norte 0 893.2 -0.4 24
2017-08-12 18:00:00 28.1 9 Este 28 Sudeste 0 893.1 -0.9 15
2017-08-12 17:00:00 28.6 8 Este 24 Sudeste 0 893.2 -1.3 13
2017-08-12 16:00:00 27.8 9 Este 25 Sudeste 0 893.6 -1.1 13
2017-08-12 15:00:00 27.1 10 Sudeste 24 Sudeste 0 894 -0.9 13
2017-08-12 14:00:00 26.7 8 Este 23 Sudeste 0 894.5 -0.4 13
2017-08-12 13:00:00 24.6 9 Sudeste 23 Sur 0 894.7 -0.4 16
2017-08-12 12:00:00 21.6 7 Sudeste 17 Sur 0 894.9 0.1 22
2017-08-12 11:00:00 17 3 Sudeste 20 Sur 0 894.9 0.3 39
2017-08-12 10:00:00 13 3 Sudoeste 18 Oeste 0 895.1 0.9 58
2017-08-12 09:00:00 9.8 6 Noroeste 21 Oeste 0 894.8 0.7 65
2017-08-12 08:00:00 7.2 10 Noroeste 19 Oeste 0 894.6 0.4 60
2017-08-12 07:00:00 6.9 6 Noroeste 19 Oeste 0 894.2 -0.5 76
2017-08-12 06:00:00 7.7 12 Oeste 23 Oeste 0 894.1 -0.7 76
2017-08-12 05:00:00 8.2 8 Noroeste 21 Oeste 0 894.2 -0.7 83
2017-08-12 04:00:00 7.7 10 Noroeste 19 Oeste 0 894.7 -0.6 90
2017-08-12 03:00:00 8.2 4 Nordeste 17 Oeste 0 894.8 -0.6 83
2017-08-12 02:00:00 9.5 7 Noroeste 22 Oeste 0 894.9 -0.4 82
2017-08-12 01:00:00 10.1 9 Noroeste 22 Oeste 0 895.3 0.3 79
2017-08-12 00:00:00 10.3 4 Noroeste 18 Sudoeste 0 895.4 0.7 80
2017-08-11 23:00:00 12 3 Este 14 Noroeste 0 895.3 0.9 72
2017-08-11 22:00:00 13.8 3 Sur 17 Noroeste 0 895 0.7 61
2017-08-11 21:00:00 16.3 9 Noroeste 19 Noroeste 0 894.7 0.4 54
2017-08-11 20:00:00 21 9 Nordeste 20 Nordeste 0 894.4 0 35
2017-08-11 19:00:00 22.6 9 Nordeste 23 Norte 0 894.3 -0.3 32
2017-08-11 18:00:00 24.1 13 Este 24 Este 0 894.3 -0.6 28
2017-08-11 17:00:00 25.1 9 Este 24 Norte 0 894.4 -0.7 23
2017-08-11 16:00:00 24.1 9 Norte 26 Nordeste 0 894.6 -0.8 20
2017-08-11 15:00:00 24 10 Nordeste 28 Este 0 894.9 -0.7 15
2017-08-11 14:00:00 22.1 9 Nordeste 21 Este 0 895.1 -0.5 22
2017-08-11 13:00:00 20.6 4 Sur 17 Sur 0 895.4 -0.2 27
2017-08-11 12:00:00 17.4 10 Sudeste 19 Sudoeste 0 895.6 0 34
2017-08-11 11:00:00 13.1 5 Norte 21 Oeste 0 895.6 0.2 45
2017-08-11 10:00:00 10 4 Este 17 Oeste 0 895.6 0.4 67
2017-08-11 09:00:00 7 4 Sudoeste 17 Oeste 0 895.6 0.3 79
2017-08-11 08:00:00 5.2 9 Oeste 16 Oeste 0 895.4 0.2 83
2017-08-11 07:00:00 6.4 7 Noroeste 19 Oeste 0 895.2 -0.6 76
2017-08-11 06:00:00 6.7 12 Oeste 21 Oeste 0 895.3 -0.8 78
2017-08-11 05:00:00 6.5 8 Sudoeste 19 Oeste 0 895.2 -1.3 80
2017-08-11 04:00:00 6.4 15 Oeste 20 Oeste 0 895.8 -1 82
2017-08-11 03:00:00 7.4 8 Noroeste 19 Oeste 0 896.1 -0.6 79
2017-08-11 02:00:00 7.2 8 Noroeste 18 Oeste 0 896.5 -0.3 81
2017-08-11 01:00:00 8.2 7 Norte 22 Noroeste 0 896.8 0.6 78
2017-08-11 00:00:00 8.3 8 Norte 20 Norte 0 896.7 0.6 78
2017-08-10 23:00:00 8.6 8 Norte 21 Norte 0 896.8 0.9 79
2017-08-10 22:00:00 10 13 Norte 24 Norte 0 896.2 0.7 76
2017-08-10 21:00:00 11.6 10 Norte 30 Norte 0 896.1 0.4 67
2017-08-10 20:00:00 14.9 11 Norte 34 Norte 0 895.9 0.4 56
2017-08-10 19:00:00 17.3 15 Norte 30 Norte 0 895.5 -0.6 48
2017-08-10 18:00:00 17.8 15 Norte 35 Nordeste 0 895.7 -0.8 46
2017-08-10 17:00:00 19.1 15 Norte 33 Norte 0 895.5 -1.1 41
2017-08-10 16:00:00 19.4 14 Norte 27 Norte 0 896.1 -0.6 33
2017-08-10 15:00:00 18.9 12 Nordeste 31 Nordeste 0 896.5 -0.1 35
2017-08-10 14:00:00 17.8 12 Norte 32 Nordeste 0 896.6 0.3 37
2017-08-10 13:00:00 15.8 15 Norte 37 Nordeste 0 896.7 0.4 43
2017-08-10 12:00:00 14.2 12 Norte 39 Norte 0 896.6 0.5 50
2017-08-10 11:00:00 12.1 16 Norte 35 Norte 0 896.3 0.7 61
2017-08-10 10:00:00 10.7 14 Norte 32 Nordeste 0 896.3 0.9 66
2017-08-10 09:00:00 9.1 11 Norte 28 Noroeste 0 896.1 0.9 71
2017-08-10 08:00:00 6.1 3 Sudoeste 17 Oeste 0 895.6 0.4 81
2017-08-10 07:00:00 6.7 6 Norte 18 Oeste 0 895.4 0 78
2017-08-10 06:00:00 6.6 11 Norte 22 Norte 0 895.2 -0.3 78
2017-08-10 05:00:00 6.4 9 Noroeste 24 Noroeste 0 895.2 -0.6 76
2017-08-10 04:00:00 5.9 10 Noroeste 22 Oeste 0 895.4 -0.3 77
2017-08-10 03:00:00 5.6 7 Nordeste 17 Nordeste 0 895.5 0.1 78
2017-08-10 02:00:00 6.3 8 Norte 20 Noroeste 0 895.8 0.7 74
2017-08-10 01:00:00 6.5 9 Noroeste 21 Oeste 0 895.7 1.2 74
2017-08-10 00:00:00 7.3 11 Noroeste 33 Norte 0 895.4 1.5 73
2017-08-09 23:00:00 8.2 15 Norte 33 Noroeste 0 895.1 1.8 70
2017-08-09 22:00:00 8.2 11 Noroeste 34 Noroeste 0 894.5 1.7 70
2017-08-09 21:00:00 9.5 15 Norte 36 Noroeste 0 893.9 1.3 63
2017-08-09 20:00:00 11.7 17 Norte 42 Norte 0 893.3 0.9 56
2017-08-09 19:00:00 12.9 -- -- -- -- 0 892.8 0.7 51
2017-08-09 18:00:00 14.5 21 Norte 44 Norte 0 892.6 0.8 47
2017-08-09 17:00:00 16 16 Norte 39 Norte 0 892.4 0.8 36
2017-08-09 16:00:00 15.8 17 Norte 43 Norte 0 892.1 0.8 42
2017-08-09 15:00:00 16.6 16 Norte 37 Noroeste 0 891.8 0.5 40
2017-08-09 14:00:00 15.7 19 Norte 35 Norte 0 891.6 0.8 40
2017-08-09 13:00:00 16 12 Norte 33 Norte 0 891.3 0.7 43
2017-08-09 12:00:00 13.9 12 Nordeste 36 Norte 0 891.3 1.1 52
2017-08-09 11:00:00 11.9 11 Norte 30 Norte 0 890.8 1 63
2017-08-09 10:00:00 10.5 13 Norte 31 Nordeste 0 890.6 1 71
2017-08-09 09:00:00 8.8 8 Norte 21 Oeste 0 890.2 0.6 79
2017-08-09 08:00:00 7.3 8 Oeste 17 Oeste 0 889.8 0.1 81
2017-08-09 07:00:00 6.7 13 Oeste 19 Oeste 0 889.6 -0.5 81
2017-08-09 06:00:00 7.2 6 Noroeste 19 Oeste 0 889.6 -0.7 84
2017-08-09 05:00:00 7.5 6 Norte 17 Oeste 0 889.7 -0.8 83
2017-08-09 04:00:00 7.7 10 Oeste 18 Oeste 0 890.1 -0.5 86
2017-08-09 03:00:00 7.7 10 Oeste 19 Oeste 0 890.3 -0.5 86
2017-08-09 02:00:00 8 9 Noroeste 23 Oeste 0 890.5 -0.4 84
2017-08-09 01:00:00 8.4 9 Norte 18 Oeste 0 890.6 0.1 88
2017-08-09 00:00:00 9.2 7 Norte 18 Norte 0 890.8 0.5 87
2017-08-08 23:00:00 8.9 4 Norte 15 Norte 0 890.9 0.8 87
2017-08-08 22:00:00 9.8 7 Norte 22 Norte 0 890.5 0.4 82
2017-08-08 21:00:00 12.4 6 Norte 18 Nordeste 0 890.3 0.4 71
2017-08-08 20:00:00 14.9 4 Norte 18 Norte 0 890.1 0.2 62
2017-08-08 19:00:00 17.3 8 Nordeste 25 Sudeste 0 890.1 0.1 52
2017-08-08 18:00:00 18.6 8 Nordeste 23 Noroeste 0 889.9 -0.1 47
2017-08-08 17:00:00 18.4 8 Norte 28 Norte 0 889.9 -0.1 46
2017-08-08 16:00:00 18.3 9 Noroeste 23 Norte 0 890 -0.1 44
2017-08-08 15:00:00 18.2 12 Norte 27 Norte 0 890 -0.2 46
2017-08-08 14:00:00 18.2 8 Norte 26 Norte 0 890 -0.1 45
2017-08-08 13:00:00 17.8 5 Noroeste 19 Nordeste 0 890.1 0.1 41
2017-08-08 12:00:00 17.1 8 Nordeste 21 Nordeste 0 890.2 0.4 45
2017-08-08 11:00:00 14 6 Nordeste 23 Oeste 0 890.1 0.8 55
2017-08-08 10:00:00 11.3 4 Oeste 19 Oeste 0 890 1.1 69
2017-08-08 09:00:00 9.3 6 Noroeste 19 Oeste 0 889.8 1.3 78
2017-08-08 08:00:00 7.7 14 Noroeste 22 Oeste 0 889.3 0.8 87
2017-08-08 07:00:00 8.2 7 Noroeste 24 Oeste 0 888.9 0.5 85
2017-08-08 06:00:00 8.8 10 Noroeste 25 Noroeste 0 888.5 -0.1 84
2017-08-08 05:00:00 9.1 10 Norte 23 Norte 0 888.5 0 82
2017-08-08 04:00:00 9.8 11 Norte 23 Noroeste 0 888.4 0 81
2017-08-08 03:00:00 10.2 11 Norte 28 Oeste 0 888.6 0.2 81
2017-08-08 02:00:00 10.9 10 Noroeste 30 Noroeste 0 888.5 0.7 79
2017-08-08 01:00:00 11 10 Norte 27 Noroeste 0 888.4 1.4 82
2017-08-08 00:00:00 11.3 13 Norte 31 Norte 0 888.4 1.7 81
2017-08-07 23:00:00 11.6 16 Norte 36 Norte 0 887.8 1.3 80
2017-08-07 22:00:00 12.5 11 Noroeste 33 Norte 0 887 0.6 80
2017-08-07 21:00:00 14.3 17 Norte 32 Norte 0 886.7 0.6 73
2017-08-07 20:00:00 16.1 12 Noroeste 28 Norte 0 886.5 0.9 71
2017-08-07 19:00:00 16.3 14 Norte 30 Norte 0 886.4 0.9 72
2017-08-07 18:00:00 18.4 11 Norte 27 Norte 0 886.1 0.4 62
2017-08-07 17:00:00 25.3 8 Nordeste 31 Sudoeste 0 885.6 -0.7 39
2017-08-07 16:00:00 27 17 Sur 33 Sur 0 885.5 -1.3 29
2017-08-07 15:00:00 28.4 17 Sudoeste 31 Sur 0 885.7 -1.5 26
2017-08-07 14:00:00 27.4 12 Sudoeste 24 Sur 0 886.3 -1.2 29
2017-08-07 13:00:00 25.8 11 Sudeste 21 Sudeste 0 886.8 -1.1 35
2017-08-07 12:00:00 22.7 6 Sudeste 15 Sudeste 0 887.2 -1 48
2017-08-07 11:00:00 16.4 3 Oeste 18 Oeste 0 887.5 -0.8 71
2017-08-07 10:00:00 11.7 3 Noroeste 20 Oeste 0 887.9 -0.4 93
2017-08-07 09:00:00 9 6 Noroeste 21 Oeste 0 888.2 -0.3 95
2017-08-07 08:00:00 7.6 15 Oeste 21 Oeste 0 888.3 -0.8 95
2017-08-07 07:00:00 8 14 Oeste 23 Oeste 0 888.3 -1.2 94
2017-08-07 06:00:00 8.6 6 Noroeste 18 Oeste 0 888.5 -1.6 94
2017-08-07 05:00:00 8.8 7 Oeste 17 Oeste 0 889.1 -1.8 94
2017-08-07 04:00:00 8.2 2 Noroeste 19 Oeste 0 889.5 -1.7 92
2017-08-07 03:00:00 8.9 6 Norte 21 Oeste 0 890.1 -1 93
2017-08-07 02:00:00 9.2 9 Noroeste 22 Oeste 0 890.9 -0.2 92
2017-08-07 01:00:00 9.6 5 Sudeste 14 Sudoeste 0 891.2 0.3 90
2017-08-07 00:00:00 10.2 4 Nordeste 12 Noroeste 0 891.1 0.3 88
2017-08-06 23:00:00 11.3 7 Norte 19 Noroeste 0 891.1 0.1 85
2017-08-06 22:00:00 12.4 7 Norte 22 Noroeste 0 890.9 -0.4 80
2017-08-06 21:00:00 14.1 10 Norte 23 Norte 0 890.8 -0.6 72
2017-08-06 20:00:00 16.4 13 Norte 25 Noroeste 0 891 -0.6 62
2017-08-06 19:00:00 17.6 13 Norte 24 Noroeste 0 891.3 -0.6 58
2017-08-06 18:00:00 20.9 11 Norte 26 Norte 0 891.4 -0.9 48
2017-08-06 17:00:00 22.7 9 Nordeste 26 Nordeste 0 891.6 -1.2 43
2017-08-06 16:00:00 22.1 10 Norte 26 Noroeste 0 891.9 -1.3 43
2017-08-06 15:00:00 21.4 10 Norte 27 Norte 0 892.3 -1.1 45
2017-08-06 14:00:00 19.7 13 Norte 28 Nordeste 0 892.8 -0.6 50
2017-08-06 13:00:00 18.6 14 Norte 28 Norte 0 893.2 -0.2 51
2017-08-06 12:00:00 17 13 Norte 30 Norte 0 893.4 0.2 55
2017-08-06 11:00:00 14.8 14 Norte 35 Norte 0 893.4 0.5 63
2017-08-06 10:00:00 13.4 15 Norte 34 Norte 0 893.4 0.8 68
2017-08-06 09:00:00 11.9 14 Noroeste 33 Noroeste 0 893.2 0.7 76
2017-08-06 08:00:00 10 8 Noroeste 24 Oeste 0 892.9 0.1 85
2017-08-06 07:00:00 9.8 4 Noroeste 18 Oeste 0 892.6 -0.4 85
2017-08-06 06:00:00 10.9 5 Noroeste 33 Noroeste 0 892.5 -0.7 83
2017-08-06 05:00:00 11 7 Noroeste 26 Oeste 0 892.8 -0.6 83
2017-08-06 04:00:00 11.2 8 Noroeste 32 Noroeste 0 893 -0.5 83
2017-08-06 03:00:00 11.6 12 Noroeste 35 Noroeste 0 893.2 -0.5 82
2017-08-06 02:00:00 11.7 8 Noroeste 31 Noroeste 0 893.4 -0.1 80
2017-08-06 01:00:00 11.7 8 Noroeste 35 Oeste 0 893.5 0.8 81
2017-08-06 00:00:00 11.9 9 Noroeste 36 Oeste 0 893.7 1.3 80
2017-08-05 23:00:00 11.9 11 Noroeste 38 Noroeste 0 893.5 1.5 81
2017-08-05 22:00:00 11.9 9 Norte 34 Norte 0 892.7 0.7 83
2017-08-05 21:00:00 13.1 16 Norte 33 Norte 0 892.4 0.4 77
2017-08-05 20:00:00 15.7 15 Norte 34 Norte 0 892 0.2 67
2017-08-05 19:00:00 18.5 16 Norte 36 Norte 0 892 0.1 58
2017-08-05 18:00:00 19.9 15 Norte 33 Norte 0 892 0 54
2017-08-05 17:00:00 21.5 13 Norte 28 Nordeste 0 891.8 -0.3 51
2017-08-05 16:00:00 24.2 11 Nordeste 25 Nordeste 0 891.9 -0.5 45
2017-08-05 15:00:00 22.9 13 Norte 28 Noroeste 0 892 -0.4 49
2017-08-05 14:00:00 22.6 13 Norte 27 Norte 0 892.1 -0.1 51
2017-08-05 13:00:00 22.2 10 Nordeste 28 Norte 0 892.4 0.3 53
2017-08-05 12:00:00 19.7 17 Norte 28 Norte 0 892.4 0.6 61
2017-08-05 11:00:00 18.4 14 Norte 24 Norte 0 892.2 0.8 67
2017-08-05 10:00:00 17.5 9 Norte 17 Nordeste 0 892.1 0.9 75
2017-08-05 09:00:00 16.6 0 Calma 5 Sudeste 0 891.8 0.8 90
2017-08-05 08:00:00 15.6 2 Este 17 Oeste 0 891.4 0.4 93
2017-08-05 07:00:00 15.3 6 Noroeste 18 Oeste 0 891.2 -0.1 93
2017-08-05 06:00:00 15.5 4 Oeste 13 Oeste 0 891 -0.3 93
2017-08-05 05:00:00 15.6 3 Oeste 12 Oeste 0 891 -0.4 93
2017-08-05 04:00:00 15.7 2 Sudeste 12 Sur 0 891.3 -0.5 93
2017-08-05 03:00:00 15.7 5 Sur 17 Oeste 0 891.3 -0.6 91
2017-08-05 02:00:00 16.4 10 Oeste 19 Oeste 0 891.4 -0.2 91
2017-08-05 01:00:00 17.1 14 Oeste 19 Oeste 0 891.8 0.9 88
2017-08-05 00:00:00 18 7 Sudoeste 17 Oeste 0 891.9 1.2 82
2017-08-04 23:00:00 19.3 7 Norte 19 Oeste 0 891.6 1.3 78
2017-08-04 22:00:00 20.6 9 Norte 19 Sur 0 890.9 0.9 72
2017-08-04 21:00:00 24.1 5 Este 22 Nordeste 0 890.7 0.7 57
2017-08-04 20:00:00 27.6 9 Nordeste 30 Sudoeste 0 890.3 0 45
2017-08-04 19:00:00 33.1 14 Sudoeste 33 Sudoeste 0 890 -0.7 20
2017-08-04 18:00:00 32.9 16 Sudoeste 33 Sudoeste 0 890 -1.1 20
2017-08-04 17:00:00 33.2 15 Sudoeste 35 Sudoeste 0 890.3 -1.2 23
2017-08-04 16:00:00 32.7 14 Sudoeste 30 Sudoeste 0 890.7 -1.1 26
2017-08-04 15:00:00 31.5 10 Sudoeste 33 Sudoeste 0 891.1 -1.3 28
2017-08-04 14:00:00 30.1 12 Sudoeste 31 Sur 0 891.5 -1 31
2017-08-04 13:00:00 28.2 10 Sudeste 24 Sudeste 0 891.8 -0.5 36
2017-08-04 12:00:00 25 10 Sudeste 24 Este 0 892.4 0.4 44
2017-08-04 11:00:00 21.3 6 Sudeste 13 Sudeste 0 892.5 0.9 57
2017-08-04 10:00:00 17.9 3 Sudoeste 12 Noroeste 0 892.3 0.9 73
2017-08-04 09:00:00 15.7 3 Noroeste 12 Noroeste 0 892 0.8 85
2017-08-04 08:00:00 13.6 4 Oeste 12 Noroeste 0 891.6 0.2 90
2017-08-04 07:00:00 13.8 7 Noroeste 13 Noroeste 0 891.4 -0.1 91
2017-08-04 06:00:00 13.4 6 Oeste 12 Oeste 0 891.2 -0.4 91
2017-08-04 05:00:00 13.5 8 Noroeste 13 Oeste 0 891.4 -0.3 92
2017-08-04 04:00:00 14.1 5 Noroeste 10 Noroeste 0 891.5 -0.4 92
2017-08-04 03:00:00 14 5 Noroeste 8 Noroeste 0 891.6 -0.1 92
2017-08-04 02:00:00 14 2 Sur 11 Sur 0 891.7 -0.1 89
2017-08-04 01:00:00 15.2 6 Sudeste 19 Oeste 0 891.9 0.5 85
2017-08-04 00:00:00 16.8 13 Oeste 18 Oeste 0 891.7 0.8 78
2017-08-03 23:00:00 17.7 14 Oeste 19 Oeste 0 891.8 1.5 75
2017-08-03 22:00:00 19.6 9 Sudeste 22 Este 0 891.4 1.1 68
2017-08-03 21:00:00 25.6 12 Este 21 Este 0 890.9 0.3 44
2017-08-03 20:00:00 29.8 10 Sudoeste 27 Oeste 0 890.3 -0.5 25
2017-08-03 19:00:00 31 10 Sudoeste 27 Sur 0 890.3 -0.7 24
2017-08-03 18:00:00 30.9 11 Sudoeste 37 Sur 0 890.6 -0.8 24
2017-08-03 17:00:00 31.1 9 Sudoeste 42 Sudoeste 0 890.8 -0.9 25
2017-08-03 16:00:00 30.2 15 Sur 34 Sur 0 891 -1 27
2017-08-03 15:00:00 30.3 14 Sudoeste 34 Sur 0 891.4 -1.1 23
2017-08-03 14:00:00 29.3 14 Sur 35 Sur 0 891.7 -0.9 23
2017-08-03 13:00:00 27.3 14 Sur 33 Sudeste 0 892 -0.6 27
2017-08-03 12:00:00 25 10 Sudeste 23 Sudeste 0 892.5 0.3 31
2017-08-03 11:00:00 21.5 10 Este 19 Sudeste 0 892.6 0.7 41
2017-08-03 10:00:00 17.6 5 Este 13 Noroeste 0 892.6 0.8 54
2017-08-03 09:00:00 15.1 2 Sudoeste 14 Oeste 0 892.2 0.8 59
2017-08-03 08:00:00 12.7 7 Noroeste 21 Oeste 0 891.9 0.2 62
2017-08-03 07:00:00 13.7 8 Noroeste 17 Oeste 0 891.8 0.3 53
2017-08-03 06:00:00 12.5 7 Noroeste 15 Oeste 0 891.4 -0.1 54
2017-08-03 05:00:00 13.9 6 Noroeste 16 Oeste 0 891.7 -0.1 44
2017-08-03 04:00:00 14.1 9 Noroeste 26 Oeste 0 891.5 -0.3 45
2017-08-03 03:00:00 14.7 7 Noroeste 18 Oeste 0 891.5 -0.1 42
2017-08-03 02:00:00 15.5 9 Noroeste 18 Oeste 0 891.8 0.1 41
2017-08-03 01:00:00 15.7 10 Oeste 19 Oeste 0 891.8 0.4 45
2017-08-03 00:00:00 16.9 13 Oeste 22 Oeste 0 891.6 0.6 43
2017-08-02 23:00:00 19.4 4 Noroeste 19 Oeste 0 891.7 1.3 29
2017-08-02 22:00:00 22.5 3 Oeste 26 Oeste 0 891.4 1 23
2017-08-02 21:00:00 26.8 8 Sudoeste 23 Sudoeste 0 891 0.6 18
2017-08-02 20:00:00 28.9 11 Sudoeste 36 Sur 0 890.4 -0.1 15
2017-08-02 19:00:00 29.9 15 Sur 26 Sur 0 890.4 -0.4 13
2017-08-02 18:00:00 30.3 12 Sudoeste 27 Sudoeste 0 890.4 -0.7 14
2017-08-02 17:00:00 30.7 15 Sur 30 Sudoeste 0 890.5 -1 15
2017-08-02 16:00:00 30 16 Sudoeste 32 Sur 0 890.8 -1 14
2017-08-02 15:00:00 29.9 16 Sudoeste 33 Sur 0 891.1 -0.7 16
2017-08-02 14:00:00 29.1 17 Sudoeste 36 Sur 0 891.5 -0.2 19
2017-08-02 13:00:00 27.8 12 Sudoeste 28 Sudoeste 0 891.8 0.3 20
2017-08-02 12:00:00 25.2 12 Sudoeste 27 Sudoeste 0 891.8 0.3 21
2017-08-02 11:00:00 20.6 6 Este 13 Este 0 891.7 0.2 51
2017-08-02 10:00:00 15.8 3 Este 12 Oeste 0 891.5 0.2 80
2017-08-02 09:00:00 12.2 5 Noroeste 23 Oeste 0 891.5 0.2 86
2017-08-02 08:00:00 10.6 9 Noroeste 25 Oeste 0 891.5 0.2 91
2017-08-02 07:00:00 11.1 7 Noroeste 25 Oeste 0 891.3 -0.2 93
2017-08-02 06:00:00 10.5 6 Noroeste 23 Oeste 0 891.3 -0.3 93
2017-08-02 05:00:00 11.3 7 Oeste 25 Oeste 0 891.3 -0.6 93
2017-08-02 04:00:00 11.5 7 Noroeste 20 Oeste 0 891.5 -0.4 92
2017-08-02 03:00:00 11.2 6 Noroeste 22 Oeste 0 891.6 -0.1 92
2017-08-02 02:00:00 12.1 5 Noroeste 15 Noroeste 0 891.9 0.3 91
2017-08-02 01:00:00 12.5 4 Noroeste 16 Noroeste 0 891.9 1 90
2017-08-02 00:00:00 13.4 8 Noroeste 18 Noroeste 0 891.7 1.6 88
2017-08-01 23:00:00 14 7 Noroeste 21 Noroeste 0 891.6 2.4 85
2017-08-01 22:00:00 15.3 12 Noroeste 19 Noroeste 0 890.9 2.3 78
2017-08-01 21:00:00 18.8 11 Noroeste 17 Noroeste 0 890.1 1.7 63
2017-08-01 20:00:00 20.5 8 Norte 20 Nordeste 0 889.2 1.2 58
2017-08-01 19:00:00 23.2 9 Norte 25 Este 0 888.6 0.4 48
2017-08-01 18:00:00 24.8 12 Este 26 Este 0 888.4 0.2 40
2017-08-01 17:00:00 24.1 14 Sudeste 26 Sudeste 0 888 -0.4 37
2017-08-01 16:00:00 23.5 15 Sudeste 28 Sudeste 0 888.2 -0.2 39
2017-08-01 15:00:00 23.8 14 Sur 27 Sur 0 888.2 -0.3 38
2017-08-01 14:00:00 23.6 13 Sudeste 24 Sudeste 0 888.4 0.1 39
2017-08-01 13:00:00 23.3 11 Sudeste 24 Sudeste 0 888.4 0.3 43
2017-08-01 12:00:00 19.2 5 Nordeste 15 Este 0 888.5 0.7 55
2017-08-01 11:00:00 16.9 5 Norte 16 Noroeste 0 888.3 1.1 62
2017-08-01 10:00:00 14.4 3 Noroeste 8 Norte 0 888.1 1.6 79
2017-08-01 09:00:00 12 4 Noroeste 22 Oeste 0 887.8 1.4 90
2017-08-01 08:00:00 10.3 3 Oeste 20 Oeste 0 887.2 0.7 93
2017-08-01 07:00:00 10.3 5 Nordeste 22 Oeste 0 886.5 -0.1 89
2017-08-01 06:00:00 10.9 3 Noroeste 19 Oeste 0 886.4 0 90
2017-08-01 05:00:00 11.4 4 Oeste 16 Oeste 0 886.5 0 89
2017-08-01 04:00:00 11.6 3 Noroeste 9 Noroeste 0 886.6 -0.2 89
2017-08-01 03:00:00 11.7 0 Calma 18 Norte 0 886.4 -0.3 86
2017-08-01 02:00:00 11.7 5 Norte 12 Noroeste 0 886.5 0 87
2017-08-01 01:00:00 12.2 4 Norte 15 Noroeste 0 886.8 1 85
2017-08-01 00:00:00 12.3 7 Norte 17 Noroeste 0 886.7 1.3 85
2017-07-31 23:00:00 12.6 2 Noroeste 20 Nordeste 0 886.5 1.2 83
2017-07-31 22:00:00 13.4 4 Nordeste 26 Norte 0 885.8 1 80
2017-07-31 21:00:00 14.5 9 Norte 23 Noroeste 0 885.4 1 77
2017-07-31 20:00:00 15.8 12 Noroeste 21 Nordeste 0 885.3 1 71
2017-07-31 19:00:00 16.8 13 Noroeste 24 Noroeste 0 884.8 0.1 67
2017-07-31 18:00:00 17.7 12 Norte 22 Sur 0 884.4 -0.1 62
2017-07-31 17:00:00 22.9 12 Sudoeste 26 Sur 0 884.3 -0.8 35
2017-07-31 16:00:00 23 14 Sur 25 Sur 0 884.7 -0.2 38
2017-07-31 15:00:00 22.5 10 Sur 26 Sudeste 0 884.5 -0.6 42
2017-07-31 14:00:00 20.9 11 Sudeste 22 Este 0 885.1 -0.3 46
2017-07-31 13:00:00 22.8 11 Sudeste 23 Este 0 884.9 -0.5 43
2017-07-31 12:00:00 19.6 7 Sudeste 16 Este 0 885.1 -0.2 52
2017-07-31 11:00:00 15.9 5 Este 18 Sudoeste 0 885.4 0.3 65
2017-07-31 10:00:00 12.9 5 Oeste 18 Sur 0 885.4 0.1 81
2017-07-31 09:00:00 11.2 2 Noroeste 15 Oeste 0 885.3 -0.2 89
2017-07-31 08:00:00 9.6 6 Norte 20 Oeste 0 885.1 -0.7 92
2017-07-31 07:00:00 9.5 6 Norte 12 Norte 0 885.3 -0.7 92
2017-07-31 06:00:00 9.1 7 Noroeste 21 Oeste 0 885.5 -1 93
2017-07-31 05:00:00 8.9 9 Oeste 19 Oeste 0 885.8 -1.2 93
2017-07-31 04:00:00 9 5 Noroeste 18 Oeste 0 886 -1.3 92
2017-07-31 03:00:00 9.5 4 Norte 7 Norte 0 886.5 -1 91
2017-07-31 02:00:00 10.1 3 Noroeste 14 Noroeste 0 887 -0.5 90
2017-07-31 01:00:00 10.9 8 Norte 16 Noroeste 0 887.3 0.4 89
2017-07-31 00:00:00 11.4 6 Norte 19 Noroeste 0 887.5 0.9 86
2017-07-30 23:00:00 12 7 Norte 20 Noroeste 0 887.5 1.4 85
2017-07-30 22:00:00 13.4 9 Norte 19 Norte 0 886.9 1.1 79
2017-07-30 21:00:00 17.2 4 Nordeste 18 Noroeste 0 886.6 0.6 65
2017-07-30 20:00:00 21.6 8 Nordeste 26 Nordeste 0 886.1 0 50
2017-07-30 19:00:00 24.5 11 Sur 28 Sudoeste 0 885.8 -0.5 34
2017-07-30 18:00:00 26.4 14 Sudoeste 33 Sudoeste 0 886 -0.4 18
2017-07-30 17:00:00 28.1 10 Sudoeste 37 Sur 0 886.1 -0.4 18
2017-07-30 16:00:00 29.2 15 Sudoeste 38 Sur 0 886.3 -0.6 15
2017-07-30 15:00:00 27.9 18 Sur 33 Sudoeste 0 886.4 -1 19
2017-07-30 14:00:00 26.7 14 Sudoeste 42 Sur 0 886.5 -1 22
2017-07-30 13:00:00 25.4 12 Sudoeste 27 Sur 0 886.9 -1.2 23
2017-07-30 12:00:00 22.8 9 Sudoeste 24 Sudeste 0 887.4 -0.6 34
2017-07-30 11:00:00 18.9 10 Sudeste 19 Este 0 887.5 -0.2 60
2017-07-30 10:00:00 16.8 5 Este 15 Nordeste 0 888.1 0.2 75
2017-07-30 09:00:00 13.6 2 Sur 8 Noroeste 0 888 0 92
2017-07-30 08:00:00 12.3 4 Noroeste 20 Oeste 0 887.7 -0.2 94
2017-07-30 07:00:00 12.1 4 Noroeste 10 Noroeste 0 887.9 -0.1 92
2017-07-30 06:00:00 12.5 3 Nordeste 11 Noroeste 0 888 -0.3 89
2017-07-30 05:00:00 13 4 Norte 12 Oeste 0 887.9 -0.6 85
2017-07-30 04:00:00 14 2 Nordeste 11 Oeste 0 888 -0.5 77
2017-07-30 03:00:00 15.6 9 Sudeste 15 Oeste 0 888.3 -0.2 59
2017-07-30 02:00:00 17.7 6 Norte 21 Oeste 0 888.5 0 47
2017-07-30 01:00:00 21.5 11 Sudoeste 25 Sudoeste 0 888.5 0.4 34
2017-07-30 00:00:00 22.8 11 Sudoeste 29 Sudoeste 0 888.5 0.7 32
2017-07-29 23:00:00 23.4 8 Oeste 27 Oeste 0 888.5 0.8 30
2017-07-29 22:00:00 24.7 8 Oeste 26 Oeste 0 888.1 0.1 31
2017-07-29 21:00:00 27.5 11 Sudoeste 28 Oeste 0 887.8 -0.5 27
2017-07-29 20:00:00 29.3 8 Sudoeste 42 Oeste 0 887.7 -0.7 23
2017-07-29 19:00:00 29.5 16 Sudoeste 36 Sudoeste 0 888 -0.7 22
2017-07-29 18:00:00 30.3 15 Sudoeste 38 Sudoeste 0 888.3 -0.7 19
2017-07-29 17:00:00 30.8 16 Sudoeste 36 Sudoeste 0 888.4 -0.9 18
2017-07-29 16:00:00 30.6 12 Sudoeste 31 Sudoeste 0 888.7 -0.7 22
2017-07-29 15:00:00 29.3 14 Sudoeste 29 Oeste 0 889 -0.6 24
2017-07-29 14:00:00 28.5 14 Sudoeste 31 Sudoeste 0 889.3 -0.6 24
2017-07-29 13:00:00 28 20 Sur 30 Sur 0 889.4 -0.7 28
2017-07-29 12:00:00 25.5 13 Sur 26 Sur 0 889.6 -0.1 32
2017-07-29 11:00:00 22 12 Sudeste 22 Sur 0 889.9 0.5 42
2017-07-29 10:00:00 19 6 Este 12 Nordeste 0 890.1 0.6 61
2017-07-29 09:00:00 15.9 2 Norte 16 Noroeste 0 889.7 0.1 74
2017-07-29 08:00:00 14 6 Noroeste 19 Oeste 0 889.4 -0.2 76
2017-07-29 07:00:00 13.5 7 Noroeste 17 Oeste 0 889.5 -0.5 80
2017-07-29 06:00:00 13.2 4 Noroeste 13 Oeste 0 889.6 -0.9 84
2017-07-29 05:00:00 13.8 6 Oeste 16 Oeste 0 889.6 -1.2 84
2017-07-29 04:00:00 13.9 5 Noroeste 13 Oeste 0 890 -1 81
2017-07-29 03:00:00 13.9 3 Sudoeste 17 Oeste 0 890.5 -0.7 81
2017-07-29 02:00:00 15.1 10 Noroeste 18 Oeste 0 890.8 -0.6 77
2017-07-29 01:00:00 15.8 8 Oeste 17 Oeste 0 891 0.1 77
2017-07-29 00:00:00 17.2 8 Norte 18 Oeste 0 891.2 0.7 66
2017-07-28 23:00:00 17.9 8 Norte 21 Noroeste 0 891.4 1.3 66
2017-07-28 22:00:00 19.3 10 Norte 20 Norte 0 890.9 1.3 62
2017-07-28 21:00:00 21.6 6 Norte 15 Nordeste 0 890.5 1.2 58
2017-07-28 20:00:00 23.3 8 Norte 31 Norte 0 890.1 0.6 52
2017-07-28 19:00:00 26.1 7 Nordeste 36 Noroeste 0 889.6 -0.1 41
2017-07-28 18:00:00 30.4 12 Sudeste 38 Sur 0 889.3 -0.6 20
2017-07-28 17:00:00 31.1 11 Oeste 23 Sudoeste 0 889.5 -1 17
2017-07-28 16:00:00 30.5 10 Sur 30 Sur 0 889.7 -1 15
2017-07-28 15:00:00 29.7 6 Sudoeste 19 Sur 0 889.9 -0.9 22
2017-07-28 14:00:00 27.7 8 Sur 26 Sudeste 0 890.5 -0.5 30
2017-07-28 13:00:00 25 14 Sudeste 29 Sur 0 890.7 -0.2 39
2017-07-28 12:00:00 22.2 11 Sudeste 21 Sudeste 0 890.8 0.1 54
2017-07-28 11:00:00 18.1 3 Noroeste 12 Oeste 0 891 0.6 70
2017-07-28 10:00:00 17 5 Sudeste 13 Sur 0 890.9 0.6 76
2017-07-28 09:00:00 15.4 3 Este 11 Sur 0 890.7 0.6 88
2017-07-28 08:00:00 14.7 3 Sudeste 6 Sudeste 0 890.4 0.5 90
2017-07-28 07:00:00 14.4 2 Nordeste 11 Oeste 0 890.3 0.3 91
2017-07-28 06:00:00 14.5 2 Sur 8 Sudeste 0 890.1 0.1 92
2017-07-28 05:00:00 14.6 3 Este 11 Sur 0 889.9 -0.2 92
2017-07-28 04:00:00 14.8 4 Este 11 Sur 0 890 0 92
2017-07-28 03:00:00 14.9 4 Este 10 Sur 0 890 0.1 92
2017-07-28 02:00:00 15 2 Sudoeste 6 Noroeste 0 890.1 0.5 92
2017-07-28 01:00:00 14.7 0 Calma 11 Sur 0 890 1 91
2017-07-28 00:00:00 15.5 8 Sudeste 14 Este 0 889.9 1.3 88
2017-07-27 23:00:00 17.2 8 Norte 20 Noroeste 0 889.6 1.4 80
2017-07-27 22:00:00 18.9 8 Norte 19 Noroeste 0 889 1.1 73
2017-07-27 21:00:00 22.9 5 Nordeste 17 Nordeste 0 888.6 0.8 57
2017-07-27 20:00:00 24 4 Norte 18 Nordeste 0 888.2 0.2 54
2017-07-27 19:00:00 26 9 Nordeste 24 Nordeste 0 887.9 -0.1 48
2017-07-27 18:00:00 31.8 9 Sudoeste 27 Sur 0 887.8 -0.4 21
2017-07-27 17:00:00 32.1 12 Sudoeste 32 Sudoeste 0 888 -0.6 21
2017-07-27 16:00:00 30.9 15 Sudoeste 32 Sudoeste 0 888 -1 21
2017-07-27 15:00:00 30.9 12 Sudoeste 28 Sur 0 888.2 -1.2 20
2017-07-27 14:00:00 30.1 9 Sudoeste 28 Sur 0 888.6 -0.9 20
2017-07-27 13:00:00 27.1 12 Sudeste 22 Sudeste 0 889 -0.7 29
2017-07-27 12:00:00 24.5 10 Sudeste 19 Sudeste 0 889.4 0 37
2017-07-27 11:00:00 20.6 8 Sudeste 14 Este 0 889.5 0.1 52
2017-07-27 10:00:00 16.5 2 Oeste 8 Sur 0 889.7 0.5 71
2017-07-27 09:00:00 14.1 0 Calma 21 Oeste 0 889.4 0.3 82
2017-07-27 08:00:00 11.2 4 Oeste 17 Oeste 0 889.4 0.3 85
2017-07-27 07:00:00 12 6 Noroeste 21 Oeste 0 889.2 -0.2 83
2017-07-27 06:00:00 12.1 7 Noroeste 24 Oeste 0 889.1 -0.4 88
2017-07-27 05:00:00 12.1 4 Noroeste 8 Noroeste 0 889.1 -0.7 87
2017-07-27 04:00:00 12.4 5 Noroeste 14 Noroeste 0 889.4 -0.6 86
2017-07-27 03:00:00 13.4 5 Noroeste 16 Oeste 0 889.5 -0.5 84
2017-07-27 02:00:00 13.8 6 Oeste 10 Oeste 0 889.8 -0.3 81
2017-07-27 01:00:00 14.8 3 Sudeste 17 Oeste 0 890 0.4 77
2017-07-27 00:00:00 15.8 12 Oeste 17 Oeste 0 890 0.8 73
2017-07-26 23:00:00 17.2 4 Oeste 15 Oeste 0 890.1 1.1 67
2017-07-26 22:00:00 20 8 Este 13 Este 0 889.6 0.6 60
2017-07-26 21:00:00 23.8 5 Este 19 Este 0 889.2 0.3 44
2017-07-26 20:00:00 26.2 8 Este 22 Este 0 889 -0.1 38
2017-07-26 19:00:00 27.4 12 Sudeste 28 Este 0 889 -0.4 33
2017-07-26 18:00:00 29.3 13 Sudeste 26 Este 0 888.9 -0.7 28
2017-07-26 17:00:00 29.6 6 Este 23 Sudeste 0 889.1 -0.9 24
2017-07-26 16:00:00 28.5 9 Sudeste 22 Sudeste 0 889.4 -0.8 27
2017-07-26 15:00:00 28.1 10 Este 25 Sudeste 0 889.6 -0.8 30
2017-07-26 14:00:00 26.5 9 Este 25 Este 0 890 -0.4 31
2017-07-26 13:00:00 24.4 10 Sudeste 22 Este 0 890.2 -0.3 37
2017-07-26 12:00:00 22 11 Sudeste 24 Sur 0 890.4 -0.1 43
2017-07-26 11:00:00 18.5 14 Sudeste 22 Sudeste 0 890.4 0.3 54
2017-07-26 10:00:00 15 5 Sudeste 17 Oeste 0 890.5 0.5 69
2017-07-26 09:00:00 11.5 10 Sudoeste 22 Oeste 0 890.5 0.4 83
2017-07-26 08:00:00 9.3 6 Noroeste 21 Oeste 0 890.1 0 90
2017-07-26 07:00:00 7.9 7 Sur 21 Oeste 0 890 -0.6 90
2017-07-26 06:00:00 9.3 15 Oeste 23 Oeste 0 890.1 -0.7 84
2017-07-26 05:00:00 9.7 6 Noroeste 23 Oeste 0 890.1 -0.9 88
2017-07-26 04:00:00 8.6 8 Oeste 17 Oeste 0 890.6 -0.7 90
2017-07-26 03:00:00 9.9 4 Sudoeste 17 Oeste 0 890.8 -0.6 85
2017-07-26 02:00:00 10.8 6 Noroeste 20 Oeste 0 891 -0.5 84
2017-07-26 01:00:00 10.4 6 Oeste 19 Oeste 0 891.3 0.1 85
2017-07-26 00:00:00 11.1 3 Sudeste 10 Sur 0 891.4 0.6 78
2017-07-25 23:00:00 12.6 3 Este 12 Nordeste 0 891.5 0.9 73
2017-07-25 22:00:00 14.6 6 Nordeste 18 Noroeste 0 891.2 0.8 63
2017-07-25 21:00:00 19.1 3 Norte 15 Nordeste 0 890.8 0.2 50
2017-07-25 20:00:00 20.1 9 Norte 26 Noroeste 0 890.6 -0.3 46
2017-07-25 19:00:00 21.3 12 Norte 31 Norte 0 890.4 -0.9 42
2017-07-25 18:00:00 23.3 12 Nordeste 32 Nordeste 0 890.6 -1 33
2017-07-25 17:00:00 23.5 10 Nordeste 26 Nordeste 0 890.9 -1 31
2017-07-25 16:00:00 23.4 11 Nordeste 30 Nordeste 0 891.3 -0.9 28
2017-07-25 15:00:00 23.2 10 Nordeste 28 Este 0 891.6 -0.9 34
2017-07-25 14:00:00 21.8 12 Nordeste 27 Nordeste 0 891.9 -0.7 39
2017-07-25 13:00:00 20.6 9 Nordeste 22 Nordeste 0 892.2 -0.5 44
2017-07-25 12:00:00 17.4 10 Norte 23 Nordeste 0 892.5 -0.1 52
2017-07-25 11:00:00 15.1 6 Nordeste 21 Norte 0 892.6 -0.1 60
2017-07-25 10:00:00 12.9 6 Noroeste 22 Oeste 0 892.7 0.1 66
2017-07-25 09:00:00 10.9 10 Sudoeste 27 Noroeste 0 892.6 -0.1 75
2017-07-25 08:00:00 9.1 10 Noroeste 24 Noroeste 0 892.7 -0.1 80
2017-07-25 07:00:00 8 6 Noroeste 22 Oeste 0 892.6 -0.5 83
2017-07-25 06:00:00 7.6 9 Noroeste 21 Oeste 0 892.7 -0.8 86
2017-07-25 05:00:00 7.7 8 Oeste 21 Oeste 0 892.8 -1.1 86
2017-07-25 04:00:00 8.6 5 Norte 15 Noroeste 0 893.1 -1.2 85
2017-07-25 03:00:00 9.7 10 Oeste 33 Oeste 0 893.5 -0.9 82
2017-07-25 02:00:00 10.6 12 Noroeste 29 Noroeste 0 893.9 -0.6 79
2017-07-25 01:00:00 10.5 5 Norte 23 Oeste 0 894.3 0.3 83
2017-07-25 00:00:00 11.3 12 Noroeste 22 Noroeste 0 894.4 0.8 85
2017-07-24 23:00:00 11.8 13 Noroeste 25 Norte 0 894.5 1.3 84
2017-07-24 22:00:00 12.7 7 Norte 30 Norte 0 894 0.8 81
2017-07-24 21:00:00 14.9 17 Norte 34 Norte 0 893.6 0.4 72
2017-07-24 20:00:00 18.5 15 Norte 32 Norte 0 893.2 0 58
2017-07-24 19:00:00 19.7 17 Norte 31 Norte 0 893.2 0.1 55
2017-07-24 18:00:00 20.8 15 Norte 34 Nordeste 0 893.2 -0.2 53
2017-07-24 17:00:00 22.2 14 Norte 32 Norte 0 893.2 0 49
2017-07-24 16:00:00 23.8 12 Norte 26 Norte 0 893.1 -0.4 45
2017-07-24 15:00:00 24.4 9 Nordeste 23 Norte 0 893.4 -0.2 42
2017-07-24 14:00:00 23.5 5 Norte 19 Este 0 893.2 -0.6 36
2017-07-24 13:00:00 23.1 7 Este 17 Nordeste 0 893.5 -0.2 38
2017-07-24 12:00:00 21.3 6 Sudeste 19 Sudeste 0 893.6 0.2 46
2017-07-24 11:00:00 17.7 4 Este 14 Sudeste 0 893.8 0.7 62
2017-07-24 10:00:00 15 4 Nordeste 12 Noroeste 0 893.7 0.7 77
2017-07-24 09:00:00 12.4 3 Nordeste 22 Oeste 0 893.4 0.5 89
2017-07-24 08:00:00 10.4 5 Noroeste 23 Oeste 0 893.1 0.5 91
2017-07-24 07:00:00 10.3 6 Oeste 21 Oeste 0 893 0.3 92
2017-07-24 06:00:00 10.6 4 Noroeste 22 Oeste 0 892.9 -0.2 91
2017-07-24 05:00:00 10.7 5 Oeste 17 Oeste 0 892.6 -0.6 92
2017-07-24 04:00:00 11.4 4 Norte 12 Noroeste 0 892.7 -0.4 91
2017-07-24 03:00:00 12 3 Sudoeste 17 Sudoeste 0 893.1 0.2 88
2017-07-24 02:00:00 12.6 3 Oeste 18 Noroeste 0 893.2 0.5 88
2017-07-24 01:00:00 13.4 4 Norte 24 Norte 0 893.1 0.6 86
2017-07-24 00:00:00 14.2 14 Norte 28 Noroeste 0 892.9 0.8 84
2017-07-23 23:00:00 15.1 13 Norte 21 Noroeste 0 892.7 1 78
2017-07-23 22:00:00 16.4 12 Noroeste 27 Norte 0 892.5 0.7 73
2017-07-23 21:00:00 18.3 13 Norte 27 Noroeste 0 892.1 0.2 67
2017-07-23 20:00:00 21.7 5 Nordeste 20 Norte 0 891.7 -0.2 55
2017-07-23 19:00:00 23.2 6 Norte 18 Nordeste 0 891.8 -0.2 47
2017-07-23 18:00:00 23.7 6 Norte 22 Oeste 0 891.9 -0.4 45
2017-07-23 17:00:00 25.8 7 Este 23 Este 0 891.9 -0.9 30
2017-07-23 16:00:00 24.7 12 Este 30 Este 0 892 -1 31
2017-07-23 15:00:00 26 12 Este 28 Este 0 892.3 -0.6 32
2017-07-23 14:00:00 24 10 Este 22 Sudeste 0 892.8 -0.2 37
2017-07-23 13:00:00 21 4 Este 15 Oeste 0 893 -0.2 48
2017-07-23 12:00:00 16.5 3 Este 13 Sudoeste 0 892.9 0.2 66
2017-07-23 11:00:00 12.9 3 Norte 17 Sudoeste 0 893 0.9 78
2017-07-23 10:00:00 10.6 5 Este 17 Sur 0 893.2 1.1 93
2017-07-23 09:00:00 9.8 4 Este 20 Oeste 0 892.7 0.5 95
2017-07-23 08:00:00 8.8 13 Noroeste 23 Noroeste 0 892.1 0.2 94
2017-07-23 07:00:00 9 8 Noroeste 22 Oeste 0 892.1 0.1 94
2017-07-23 06:00:00 9.4 7 Oeste 19 Oeste 0 892.2 0.1 94
2017-07-23 05:00:00 9.1 4 Noroeste 19 Oeste 0 891.9 -0.2 93
2017-07-23 04:00:00 8.9 5 Noroeste 15 Oeste 0 892 0 93
2017-07-23 03:00:00 9.3 3 Noroeste 17 Oeste 0 892.1 0.6 92
2017-07-23 02:00:00 9.6 5 Oeste 18 Oeste 0 892.1 1.2 91
2017-07-23 01:00:00 10.1 3 Este 10 Noroeste 0 892 1.7 88
2017-07-23 00:00:00 11.1 6 Norte 16 Noroeste 0 891.5 1.7 87